TimeEDT,TemperatureF,Dew PointF,Humidity,Sea Level PressureIn,VisibilityMPH,Wind Direction,Wind SpeedMPH,Gust SpeedMPH,PrecipitationIn,Events,Conditions,WindDirDegrees,DateUTC
12:15 AM,60.8,59.0,94,29.83,7.0,SSE,17.3,23.0,N/A,,Overcast,150,2012-10-20 04:15:00
12:35 AM,60.8,60.8,100,29.82,7.0,SSE,16.1,23.0,N/A,,Overcast,160,2012-10-20 04:35:00
12:55 AM,60.8,60.8,100,29.82,6.0,SSE,15.0,19.6,N/A,,Overcast,160,2012-10-20 04:55:00
1:15 AM,60.8,60.8,100,29.82,6.0,South,13.8,20.7,N/A,,Overcast,170,2012-10-20 05:15:00
1:35 AM,60.8,59.0,94,29.82,5.0,South,12.7,23.0,0.07,,Overcast,190,2012-10-20 05:35:00
1:55 AM,60.8,60.8,100,29.82,5.0,South,9.2,16.1,0.07,,Overcast,180,2012-10-20 05:55:00
2:15 AM,60.8,60.8,100,29.81,5.0,South,9.2,20.7,N/A,,Overcast,170,2012-10-20 06:15:00
2:35 AM,60.8,59.0,94,29.80,5.0,South,10.4,17.3,0.01,,Overcast,180,2012-10-20 06:35:00
2:55 AM,60.8,60.8,100,29.80,5.0,South,9.2,16.1,0.01,,Overcast,180,2012-10-20 06:55:00
3:15 AM,60.8,59.0,94,29.78,5.0,South,9.2,-,0.01,,Mostly Cloudy,180,2012-10-20 07:15:00
3:55 AM,60.8,60.8,100,29.76,5.0,SE,4.6,-,0.06,,Mostly Cloudy,130,2012-10-20 07:55:00
4:15 AM,60.8,59.0,94,29.78,5.0,SE,13.8,-,0.01,,Overcast,140,2012-10-20 08:15:00
4:35 AM,60.8,60.8,100,29.77,8.0,SE,9.2,-,0.01,,Mostly Cloudy,130,2012-10-20 08:35:00
4:55 AM,60.8,60.8,100,29.80,5.0,SE,13.8,20.7,0.16,,Mostly Cloudy,140,2012-10-20 08:55:00
5:15 AM,62.6,62.6,100,29.78,10.0,SSE,10.4,-,0.11,,Overcast,150,2012-10-20 09:15:00
5:35 AM,62.6,62.6,100,29.78,7.0,SSE,9.2,-,0.12,,Overcast,150,2012-10-20 09:35:00
5:55 AM,62.6,62.6,100,29.77,5.0,SE,6.9,-,0.15,,Overcast,140,2012-10-20 09:55:00
6:15 AM,62.6,60.8,94,29.76,9.0,SE,8.1,-,N/A,,Overcast,130,2012-10-20 10:15:00
6:35 AM,60.8,60.8,100,29.76,10.0,SE,8.1,-,N/A,,Overcast,130,2012-10-20 10:35:00
6:55 AM,60.8,59.0,94,29.75,4.0,SE,5.8,-,0.01,,Overcast,130,2012-10-20 10:55:00
7:15 AM,60.8,60.8,100,29.75,1.8,ESE,4.6,-,N/A,,Overcast,120,2012-10-20 11:15:00
7:35 AM,60.8,60.8,100,29.76,1.2,ESE,6.9,-,0.03,,Overcast,120,2012-10-20 11:35:00
7:55 AM,60.8,60.8,100,29.74,0.5,ESE,10.4,-,0.03,,Overcast,110,2012-10-20 11:55:00
8:15 AM,60.8,60.8,100,29.74,1.0,ESE,8.1,-,0.06,,Overcast,120,2012-10-20 12:15:00
8:35 AM,60.8,60.8,100,29.73,4.0,East,4.6,-,0.13,,Overcast,100,2012-10-20 12:35:00
8:55 AM,62.6,62.6,100,29.72,3.0,SE,9.2,-,0.22,,Overcast,140,2012-10-20 12:55:00
9:15 AM,62.6,62.6,100,29.71,4.0,SE,10.4,21.9,0.01,,Overcast,140,2012-10-20 13:15:00
9:35 AM,62.6,62.6,100,29.70,2.5,SSE,12.7,19.6,0.02,,Overcast,150,2012-10-20 13:35:00
9:55 AM,60.8,59.0,94,29.71,2.0,SSE,13.8,21.9,0.03,,Overcast,150,2012-10-20 13:55:00
10:15 AM,60.8,59.0,94,29.71,1.8,SSW,8.1,-,N/A,,Overcast,200,2012-10-20 14:15:00
10:35 AM,60.8,60.8,100,29.69,0.8,SSW,8.1,-,N/A,,Overcast,200,2012-10-20 14:35:00
10:55 AM,60.8,60.8,100,29.69,0.5,SSW,8.1,-,N/A,,Overcast,210,2012-10-20 14:55:00
11:15 AM,60.8,60.8,100,29.68,0.2,South,5.8,-,N/A,,Overcast,190,2012-10-20 15:15:00
11:35 AM,60.8,60.8,100,29.68,0.5,SW,9.2,-,N/A,,Overcast,220,2012-10-20 15:35:00
11:55 AM,60.8,60.8,100,29.68,0.5,SSW,8.1,-,N/A,,Overcast,200,2012-10-20 15:55:00
12:15 PM,60.8,60.8,100,29.68,0.5,South,9.2,17.3,N/A,,Overcast,190,2012-10-20 16:15:00
12:35 PM,60.8,60.8,100,29.67,0.5,South,8.1,-,N/A,,Overcast,190,2012-10-20 16:35:00
12:55 PM,60.8,60.8,100,29.66,5.0,SSW,8.1,-,N/A,,Overcast,200,2012-10-20 16:55:00
1:15 PM,62.6,60.8,94,29.65,10.0,SSW,8.1,-,N/A,,Overcast,200,2012-10-20 17:15:00
1:35 PM,60.8,60.8,100,29.66,6.0,SSE,8.1,-,N/A,,Overcast,150,2012-10-20 17:35:00
1:55 PM,59.0,59.0,100,29.66,1.2,SSE,10.4,-,N/A,,Overcast,160,2012-10-20 17:55:00
2:15 PM,59.0,59.0,100,29.65,0.2,SSE,6.9,-,N/A,,Overcast,160,2012-10-20 18:15:00
2:35 PM,59.0,59.0,100,29.65,3.0,South,9.2,-,N/A,,Overcast,170,2012-10-20 18:35:00
2:55 PM,60.8,60.8,100,29.64,3.0,SSE,10.4,-,N/A,,Overcast,160,2012-10-20 18:55:00
3:15 PM,60.8,60.8,100,29.63,5.0,SSE,11.5,18.4,N/A,,Overcast,160,2012-10-20 19:15:00
3:35 PM,60.8,60.8,100,29.64,2.5,South,10.4,17.3,N/A,,Overcast,170,2012-10-20 19:35:00
3:55 PM,60.8,60.8,100,29.63,5.0,South,8.1,-,N/A,,Overcast,180,2012-10-20 19:55:00
4:15 PM,60.8,60.8,100,29.63,3.0,South,10.4,-,N/A,,Overcast,180,2012-10-20 20:15:00
4:35 PM,60.8,60.8,100,29.63,2.0,South,11.5,17.3,N/A,,Overcast,170,2012-10-20 20:35:00
4:55 PM,60.8,59.0,94,29.63,1.0,South,8.1,-,N/A,,Overcast,190,2012-10-20 20:55:00
5:15 PM,59.0,59.0,100,29.64,1.0,SSW,8.1,-,N/A,,Overcast,200,2012-10-20 21:15:00
5:55 PM,59.0,59.0,100,29.64,0.5,SSW,8.1,-,N/A,,Overcast,200,2012-10-20 21:55:00
6:15 PM,60.8,59.0,94,29.63,0.8,South,6.9,-,N/A,,Overcast,190,2012-10-20 22:15:00
6:35 PM,59.0,59.0,100,29.64,0.5,South,10.4,16.1,N/A,,Overcast,190,2012-10-20 22:35:00
6:55 PM,59.0,59.0,100,29.63,0.8,SW,8.1,-,N/A,,Overcast,220,2012-10-20 22:55:00
7:15 PM,59.0,57.2,94,29.63,1.0,SSW,4.6,-,N/A,,Overcast,210,2012-10-20 23:15:00
7:35 PM,59.0,57.2,94,29.63,1.2,SW,6.9,-,N/A,,Overcast,220,2012-10-20 23:35:00
7:55 PM,57.2,55.4,94,29.63,1.0,South,8.1,-,N/A,,Overcast,190,2012-10-20 23:55:00
8:15 PM,57.2,57.2,100,29.64,1.0,South,6.9,-,N/A,,Overcast,190,2012-10-21 00:15:00
8:35 PM,57.2,57.2,100,29.63,1.0,SSW,5.8,-,N/A,,Overcast,200,2012-10-21 00:35:00
8:55 PM,57.2,57.2,100,29.64,0.8,SSW,5.8,-,N/A,,Overcast,210,2012-10-21 00:55:00
9:15 PM,57.2,57.2,100,29.64,2.5,SSW,3.5,-,N/A,,Overcast,200,2012-10-21 01:15:00
9:35 PM,57.2,55.4,94,29.65,10.0,SSW,4.6,-,N/A,,Overcast,200,2012-10-21 01:35:00
9:55 PM,57.2,57.2,100,29.64,9.0,South,3.5,-,N/A,,Mostly Cloudy,190,2012-10-21 01:55:00
10:15 PM,57.2,57.2,100,29.64,8.0,SSW,3.5,-,N/A,,Scattered Clouds,210,2012-10-21 02:15:00
10:35 PM,57.2,57.2,100,29.64,8.0,SSW,4.6,-,N/A,,Scattered Clouds,200,2012-10-21 02:35:00
10:55 PM,57.2,55.4,94,29.63,10.0,SSW,3.5,-,N/A,,Partly Cloudy,210,2012-10-21 02:55:00
11:15 PM,55.4,53.6,94,29.63,8.0,SW,3.5,-,N/A,,Clear,220,2012-10-21 03:15:00
11:35 PM,55.4,55.4,100,29.63,5.0,Calm,Calm,-,N/A,,Clear,0,2012-10-21 03:35:00
11:55 PM,55.4,53.6,94,29.63,6.0,SW,4.6,-,N/A,,Clear,230,2012-10-21 03:55:00